LFRBLFRT

Guest
Details From LFRB - Brest Bretagne
To LFRT - Saint Brieuc Armor
Flight Number -
Tags generated
Created
Modified
Stats Distance 62 nm / 116 km
Max Altitude 1,500 ft / 457 m
Waypoints 3
Social Downloads 2
Likes 0
Share VATSIM

Download

Looking for another format? Having issues loading an existing format? Contact us
Advertisement - Login to hide

Notes

Basic altitude profile: - Ascent Rate: 500ft/min - Ascent Speed: 110kts - Cruise Altitude: 1500ft - Cruise Speed: 120kts - Descent Rate: 400ft/min - Descent Speed: 110kts

Route

LFRB LARSI LFRT

ID Type Via Altitude Latitude Longitude Leg Dist Tot Dist Heading (true) Name
O LFRB APT - 0 ft / 0 m 48.44938˚ -4.41823˚ - 0 nm - Brest Bretagne
LARSI FIX - 1,500 ft / 457 m 48.51639˚ -3.59167˚ 33 nm 33 nm 83° / 83° -
O LFRT APT - 0 ft / 0 m 48.53826˚ -2.85461˚ 29 nm 62 nm 87° / 88° Saint Brieuc Armor

Altitude Profile

Advertisement - Login to hide

LFRB

Details ICAO LFRB (BES)
Name Brest Bretagne
Region France
Timezone Europe/Paris (UTC+2.0)
Stats Elevation 325 ft / 99 m (AMSL)
Location 48.449376° -4.418232°
Runways 2
Magnetic Variation 1.513° W

METAR

LFRB 241530Z AUTO 01010KT 340V050 CAVOK 19/13 Q1017 NOSIG

Decode

TAF

TAF LFRB 241100Z 2412/2518 04008KT 9999 SCT028 BECMG 2421/2423 BKN008 TEMPO 2500/2506 4000 BR BECMG 2508/2510 BKN021 PROB30 TEMPO 2512/2518 SHRA SCT033TCU

Decode

Departure Runways

ID Width Length Bearing (true) Bearing (mag) Surface Threshold Offset Overrun Length
07L 62 ft / 19 m 2,518 ft / 768 m 71.21° 72.72° Asphalt 131 ft / 40 m 0 ft / 0 m
07R 148 ft / 45 m 10,153 ft / 3,095 m 71.16° 72.67° Asphalt 0 ft / 0 m 0 ft / 0 m
25L 148 ft / 45 m 10,153 ft / 3,095 m 251.19° 252.70° Asphalt 984 ft / 300 m 0 ft / 0 m
25R 62 ft / 19 m 2,518 ft / 768 m 251.22° 252.73° Asphalt 112 ft / 34 m 0 ft / 0 m

LFRT

Details ICAO LFRT (SBK)
Name Saint Brieuc Armor
Region France
Timezone Europe/Paris (UTC+2.0)
Stats Elevation 452 ft / 138 m (AMSL)
Location 48.538265° -2.854612°
Runways 1
Magnetic Variation 0.990° W

METAR

LFRT 241530Z AUTO 02005KT 350V060 6000 OVC010 15/12 Q1017

Decode

TAF

Not found

Destination Runways

ID Width Length Bearing (true) Bearing (mag) Surface Threshold Offset Overrun Length
06 148 ft / 45 m 7,214 ft / 2,199 m 58.77° 59.76° Asphalt 0 ft / 0 m 0 ft / 0 m
24 148 ft / 45 m 7,214 ft / 2,199 m 238.79° 239.78° Asphalt 0 ft / 0 m 0 ft / 0 m

Approach Navaids

Runway Type Ident Frequency Range Bearing (true) Bearing (mag) Slope Elevation
24 Localiser SB 109.95 MHz 18 nm / 33 km 238.78° 239.77° - 452 ft / 138 m (AMSL)
24 Glidescope SB 109.95 MHz 10 nm / 19 km 238.78° 239.77° 3.00° 452 ft / 138 m (AMSL)

Popular Alternatives